sensor_id;sensor_type;location;lat;lon;timestamp;pressure;altitude;pressure_sealevel;temperature;humidity
1371;BME280;14306;49.942;11.570;2023-02-11T00:01:21;99393.84;;;-1.46;87.34
1371;BME280;14306;49.942;11.570;2023-02-11T00:03:50;99396.81;;;-1.41;87.25
1371;BME280;14306;49.942;11.570;2023-02-11T00:06:20;99393.66;;;-1.45;88.24
1371;BME280;14306;49.942;11.570;2023-02-11T00:08:48;99392.41;;;-1.34;87.40
1371;BME280;14306;49.942;11.570;2023-02-11T00:11:18;99398.41;;;-1.18;86.96
1371;BME280;14306;49.942;11.570;2023-02-11T00:13:47;99405.75;;;-1.20;86.55
1371;BME280;14306;49.942;11.570;2023-02-11T00:16:18;99380.69;;;-1.62;87.10
1371;BME280;14306;49.942;11.570;2023-02-11T00:18:48;99402.56;;;-1.38;87.07
1371;BME280;14306;49.942;11.570;2023-02-11T00:21:21;99412.88;;;-1.20;87.12
1371;BME280;14306;49.942;11.570;2023-02-11T00:23:51;99410.72;;;-1.02;87.28
1371;BME280;14306;49.942;11.570;2023-02-11T00:26:23;99405.66;;;-1.12;87.38
1371;BME280;14306;49.942;11.570;2023-02-11T00:28:52;99407.50;;;-0.98;87.24
1371;BME280;14306;49.942;11.570;2023-02-11T00:31:21;99399.81;;;-0.93;86.00
1371;BME280;14306;49.942;11.570;2023-02-11T00:33:50;99400.88;;;-1.16;86.54
1371;BME280;14306;49.942;11.570;2023-02-11T00:36:21;99394.25;;;-1.35;87.33
1371;BME280;14306;49.942;11.570;2023-02-11T00:38:51;99391.25;;;-1.17;86.99
1371;BME280;14306;49.942;11.570;2023-02-11T00:41:21;99401.91;;;-1.17;86.53
1371;BME280;14306;49.942;11.570;2023-02-11T00:43:50;99398.63;;;-1.05;86.69
1371;BME280;14306;49.942;11.570;2023-02-11T00:46:18;99390.66;;;-1.05;86.26
1371;BME280;14306;49.942;11.570;2023-02-11T00:48:47;99389.91;;;-1.13;87.25
1371;BME280;14306;49.942;11.570;2023-02-11T00:51:17;99381.38;;;-1.09;86.53
1371;BME280;14306;49.942;11.570;2023-02-11T00:53:46;99369.44;;;-1.27;85.99
1371;BME280;14306;49.942;11.570;2023-02-11T00:56:15;99388.97;;;-1.20;86.46
1371;BME280;14306;49.942;11.570;2023-02-11T00:58:43;99386.91;;;-1.33;86.61
1371;BME280;14306;49.942;11.570;2023-02-11T01:01:12;99390.91;;;-1.00;86.15
1371;BME280;14306;49.942;11.570;2023-02-11T01:03:40;99381.84;;;-0.91;86.20
1371;BME280;14306;49.942;11.570;2023-02-11T01:06:09;99383.22;;;-1.09;86.54
1371;BME280;14306;49.942;11.570;2023-02-11T01:08:37;99364.88;;;-1.19;87.10
1371;BME280;14306;49.942;11.570;2023-02-11T01:11:11;99376.88;;;-1.08;86.37
1371;BME280;14306;49.942;11.570;2023-02-11T01:13:41;99374.56;;;-1.26;86.10
1371;BME280;14306;49.942;11.570;2023-02-11T01:16:10;99387.94;;;-1.19;86.56
1371;BME280;14306;49.942;11.570;2023-02-11T01:18:39;99380.38;;;-1.08;86.53
1371;BME280;14306;49.942;11.570;2023-02-11T01:21:10;99378.25;;;-1.12;87.03
1371;BME280;14306;49.942;11.570;2023-02-11T01:23:38;99379.44;;;-1.00;86.76
1371;BME280;14306;49.942;11.570;2023-02-11T01:26:08;99348.75;;;-1.03;86.35
1371;BME280;14306;49.942;11.570;2023-02-11T01:28:36;99363.88;;;-0.74;86.30
1371;BME280;14306;49.942;11.570;2023-02-11T01:31:04;99352.69;;;-0.70;86.38
1371;BME280;14306;49.942;11.570;2023-02-11T01:33:32;99353.06;;;-0.87;85.52
1371;BME280;14306;49.942;11.570;2023-02-11T01:36:02;99354.88;;;-0.73;86.71
1371;BME280;14306;49.942;11.570;2023-02-11T01:38:31;99353.34;;;-0.53;86.73
1371;BME280;14306;49.942;11.570;2023-02-11T01:41:00;99357.97;;;-0.26;86.12
1371;BME280;14306;49.942;11.570;2023-02-11T01:43:33;99358.66;;;-0.18;85.63
1371;BME280;14306;49.942;11.570;2023-02-11T01:46:05;99357.09;;;-0.12;85.79
1371;BME280;14306;49.942;11.570;2023-02-11T01:48:41;99345.75;;;-0.21;85.74
1371;BME280;14306;49.942;11.570;2023-02-11T01:51:13;99343.22;;;-0.08;85.20
1371;BME280;14306;49.942;11.570;2023-02-11T01:53:43;99346.06;;;-0.09;85.66
1371;BME280;14306;49.942;11.570;2023-02-11T01:56:31;99346.00;;;-0.16;85.49
1371;BME280;14306;49.942;11.570;2023-02-11T01:59:25;99330.75;;;0.14;84.87
1371;BME280;14306;49.942;11.570;2023-02-11T02:01:58;99326.59;;;-0.31;85.00
1371;BME280;14306;49.942;11.570;2023-02-11T02:04:30;99320.66;;;-0.47;85.80
1371;BME280;14306;49.942;11.570;2023-02-11T02:07:03;99314.91;;;-0.30;85.32
1371;BME280;14306;49.942;11.570;2023-02-11T02:09:37;99315.81;;;-0.23;85.50
1371;BME280;14306;49.942;11.570;2023-02-11T02:12:07;99319.38;;;-0.16;84.27
1371;BME280;14306;49.942;11.570;2023-02-11T02:14:38;99317.75;;;-0.17;84.64
1371;BME280;14306;49.942;11.570;2023-02-11T02:17:09;99322.34;;;-0.04;85.00
1371;BME280;14306;49.942;11.570;2023-02-11T02:20:08;99318.53;;;-0.02;84.93
1371;BME280;14306;49.942;11.570;2023-02-11T02:23:13;99306.19;;;-0.03;84.94
1371;BME280;14306;49.942;11.570;2023-02-11T02:26:12;99307.81;;;-0.44;85.99
1371;BME280;14306;49.942;11.570;2023-02-11T02:32:19;99288.53;;;-0.46;85.14
1371;BME280;14306;49.942;11.570;2023-02-11T02:34:53;99291.25;;;-0.25;85.02
1371;BME280;14306;49.942;11.570;2023-02-11T02:37:30;99292.97;;;0.04;84.07
1371;BME280;14306;49.942;11.570;2023-02-11T02:40:05;99293.00;;;-0.11;84.68
1371;BME280;14306;49.942;11.570;2023-02-11T02:42:38;99290.16;;;-0.09;84.74
1371;BME280;14306;49.942;11.570;2023-02-11T02:45:08;99290.53;;;-0.12;84.77
1371;BME280;14306;49.942;11.570;2023-02-11T02:47:39;99289.13;;;0.34;84.51
1371;BME280;14306;49.942;11.570;2023-02-11T02:50:07;99280.59;;;-0.04;84.52
1371;BME280;14306;49.942;11.570;2023-02-11T02:52:41;99267.16;;;0.04;84.74
1371;BME280;14306;49.942;11.570;2023-02-11T02:55:30;99284.47;;;0.43;85.33
1371;BME280;14306;49.942;11.570;2023-02-11T02:58:28;99294.44;;;0.55;83.72
1371;BME280;14306;49.942;11.570;2023-02-11T03:01:05;99291.22;;;0.66;83.38
1371;BME280;14306;49.942;11.570;2023-02-11T03:03:40;99305.59;;;0.65;83.08
1371;BME280;14306;49.942;11.570;2023-02-11T03:06:14;99279.78;;;0.72;82.69
1371;BME280;14306;49.942;11.570;2023-02-11T03:08:47;99284.69;;;0.69;83.10
1371;BME280;14306;49.942;11.570;2023-02-11T03:11:19;99286.97;;;0.72;83.13
1371;BME280;14306;49.942;11.570;2023-02-11T03:13:49;99280.75;;;0.65;81.85
1371;BME280;14306;49.942;11.570;2023-02-11T03:16:22;99256.25;;;0.48;82.91
1371;BME280;14306;49.942;11.570;2023-02-11T03:18:58;99266.84;;;0.42;82.98
1371;BME280;14306;49.942;11.570;2023-02-11T03:21:29;99276.63;;;0.35;83.58
1371;BME280;14306;49.942;11.570;2023-02-11T03:24:02;99269.91;;;0.39;83.19
1371;BME280;14306;49.942;11.570;2023-02-11T03:26:37;99281.69;;;0.51;83.25
1371;BME280;14306;49.942;11.570;2023-02-11T03:29:09;99276.03;;;0.33;83.98
1371;BME280;14306;49.942;11.570;2023-02-11T03:31:47;99283.31;;;0.79;83.41
1371;BME280;14306;49.942;11.570;2023-02-11T03:34:24;99270.56;;;0.41;83.42
1371;BME280;14306;49.942;11.570;2023-02-11T03:36:59;99272.31;;;0.61;83.77
1371;BME280;14306;49.942;11.570;2023-02-11T03:39:32;99284.22;;;0.93;84.07
1371;BME280;14306;49.942;11.570;2023-02-11T03:42:05;99278.00;;;1.20;82.63
1371;BME280;14306;49.942;11.570;2023-02-11T03:44:36;99274.69;;;1.11;82.44
1371;BME280;14306;49.942;11.570;2023-02-11T03:47:08;99266.44;;;1.06;81.42
1371;BME280;14306;49.942;11.570;2023-02-11T03:49:42;99278.81;;;1.14;82.29
1371;BME280;14306;49.942;11.570;2023-02-11T03:52:17;99281.91;;;1.24;81.81
1371;BME280;14306;49.942;11.570;2023-02-11T03:54:49;99270.03;;;1.26;82.20
1371;BME280;14306;49.942;11.570;2023-02-11T03:57:22;99257.72;;;0.85;82.52
1371;BME280;14306;49.942;11.570;2023-02-11T03:59:54;99258.09;;;1.22;82.82
1371;BME280;14306;49.942;11.570;2023-02-11T04:02:26;99248.69;;;1.26;81.98
1371;BME280;14306;49.942;11.570;2023-02-11T04:04:57;99237.22;;;0.85;83.00
1371;BME280;14306;49.942;11.570;2023-02-11T04:07:25;99213.91;;;1.00;82.38
1371;BME280;14306;49.942;11.570;2023-02-11T04:09:54;99229.75;;;1.15;82.04
1371;BME280;14306;49.942;11.570;2023-02-11T04:12:22;99224.75;;;0.92;82.82
1371;BME280;14306;49.942;11.570;2023-02-11T04:14:50;99225.50;;;1.27;82.20
1371;BME280;14306;49.942;11.570;2023-02-11T04:17:18;99198.78;;;0.33;84.05
1371;BME280;14306;49.942;11.570;2023-02-11T04:19:46;99213.38;;;0.43;85.00
1371;BME280;14306;49.942;11.570;2023-02-11T04:22:16;99197.66;;;0.55;83.88
1371;BME280;14306;49.942;11.570;2023-02-11T04:24:43;99197.84;;;0.53;84.73
1371;BME280;14306;49.942;11.570;2023-02-11T04:27:11;99188.22;;;0.93;84.21
1371;BME280;14306;49.942;11.570;2023-02-11T04:29:40;99203.28;;;1.07;83.26
1371;BME280;14306;49.942;11.570;2023-02-11T04:32:09;99198.16;;;1.12;82.27
1371;BME280;14306;49.942;11.570;2023-02-11T04:34:38;99193.47;;;1.20;82.30
1371;BME280;14306;49.942;11.570;2023-02-11T04:37:06;99179.34;;;1.33;82.42
1371;BME280;14306;49.942;11.570;2023-02-11T04:39:36;99182.22;;;1.31;81.39
1371;BME280;14306;49.942;11.570;2023-02-11T04:42:04;99178.38;;;1.53;81.24
1371;BME280;14306;49.942;11.570;2023-02-11T04:44:33;99207.13;;;1.58;81.46
1371;BME280;14306;49.942;11.570;2023-02-11T04:47:02;99202.72;;;1.31;81.85
1371;BME280;14306;49.942;11.570;2023-02-11T04:49:30;99200.94;;;1.51;81.77
1371;BME280;14306;49.942;11.570;2023-02-11T04:51:58;99179.75;;;1.36;81.25
1371;BME280;14306;49.942;11.570;2023-02-11T04:54:26;99169.47;;;1.20;82.69
1371;BME280;14306;49.942;11.570;2023-02-11T04:56:56;99208.34;;;1.55;82.23
1371;BME280;14306;49.942;11.570;2023-02-11T04:59:25;99205.22;;;1.45;82.27
1371;BME280;14306;49.942;11.570;2023-02-11T05:01:53;99207.28;;;1.43;82.42
1371;BME280;14306;49.942;11.570;2023-02-11T05:04:22;99209.78;;;1.58;81.76
1371;BME280;14306;49.942;11.570;2023-02-11T05:06:50;99196.03;;;1.61;82.20
1371;BME280;14306;49.942;11.570;2023-02-11T05:09:19;99173.44;;;1.57;81.70
1371;BME280;14306;49.942;11.570;2023-02-11T05:11:47;99169.13;;;1.56;82.08
1371;BME280;14306;49.942;11.570;2023-02-11T05:14:18;99194.41;;;1.60;82.73
1371;BME280;14306;49.942;11.570;2023-02-11T05:16:46;99200.19;;;2.02;81.33
1371;BME280;14306;49.942;11.570;2023-02-11T05:19:14;99207.59;;;2.33;80.29
1371;BME280;14306;49.942;11.570;2023-02-11T05:21:43;99208.41;;;2.27;80.46
1371;BME280;14306;49.942;11.570;2023-02-11T05:24:28;99196.69;;;2.08;80.20
1371;BME280;14306;49.942;11.570;2023-02-11T05:26:56;99198.53;;;2.34;80.02
1371;BME280;14306;49.942;11.570;2023-02-11T05:29:26;99195.44;;;2.17;80.55
1371;BME280;14306;49.942;11.570;2023-02-11T05:31:54;99163.81;;;2.08;80.00
1371;BME280;14306;49.942;11.570;2023-02-11T05:34:23;99188.06;;;1.93;81.19
1371;BME280;14306;49.942;11.570;2023-02-11T05:36:51;99191.97;;;1.97;81.10
1371;BME280;14306;49.942;11.570;2023-02-11T05:39:20;99203.88;;;2.40;80.33
1371;BME280;14306;49.942;11.570;2023-02-11T05:41:48;99202.84;;;2.41;79.24
1371;BME280;14306;49.942;11.570;2023-02-11T05:44:16;99203.88;;;2.53;79.52
1371;BME280;14306;49.942;11.570;2023-02-11T05:46:46;99194.38;;;2.57;79.09
1371;BME280;14306;49.942;11.570;2023-02-11T05:49:15;99186.38;;;2.51;79.02
1371;BME280;14306;49.942;11.570;2023-02-11T05:51:43;99195.25;;;2.32;80.14
1371;BME280;14306;49.942;11.570;2023-02-11T05:54:12;99186.59;;;2.10;80.58
1371;BME280;14306;49.942;11.570;2023-02-11T05:56:41;99183.31;;;1.89;81.33
1371;BME280;14306;49.942;11.570;2023-02-11T05:59:12;99181.25;;;2.43;80.36
1371;BME280;14306;49.942;11.570;2023-02-11T06:01:41;99176.31;;;2.33;79.42
1371;BME280;14306;49.942;11.570;2023-02-11T06:04:11;99188.03;;;2.52;79.07
1371;BME280;14306;49.942;11.570;2023-02-11T06:06:39;99172.63;;;2.21;80.24
1371;BME280;14306;49.942;11.570;2023-02-11T06:09:08;99183.34;;;2.28;80.29
1371;BME280;14306;49.942;11.570;2023-02-11T06:11:36;99184.75;;;2.43;79.99
1371;BME280;14306;49.942;11.570;2023-02-11T06:14:05;99195.00;;;2.53;79.14
1371;BME280;14306;49.942;11.570;2023-02-11T06:16:34;99184.94;;;2.55;79.37
1371;BME280;14306;49.942;11.570;2023-02-11T06:19:02;99186.22;;;2.26;80.58
1371;BME280;14306;49.942;11.570;2023-02-11T06:21:32;99176.94;;;2.35;79.50
1371;BME280;14306;49.942;11.570;2023-02-11T06:24:10;99183.75;;;2.18;80.81
1371;BME280;14306;49.942;11.570;2023-02-11T06:26:38;99190.28;;;2.42;80.09
1371;BME280;14306;49.942;11.570;2023-02-11T06:29:07;99185.97;;;2.41;79.92
1371;BME280;14306;49.942;11.570;2023-02-11T06:31:36;99185.09;;;2.79;79.13
1371;BME280;14306;49.942;11.570;2023-02-11T06:34:05;99197.84;;;2.71;79.44
1371;BME280;14306;49.942;11.570;2023-02-11T06:36:37;99206.09;;;2.69;79.01
1371;BME280;14306;49.942;11.570;2023-02-11T06:39:06;99215.28;;;2.86;78.91
1371;BME280;14306;49.942;11.570;2023-02-11T06:41:35;99212.22;;;2.83;79.00
1371;BME280;14306;49.942;11.570;2023-02-11T06:44:03;99208.66;;;3.02;78.59
1371;BME280;14306;49.942;11.570;2023-02-11T06:46:32;99202.69;;;3.00;78.16
1371;BME280;14306;49.942;11.570;2023-02-11T06:49:01;99195.72;;;2.92;79.20
1371;BME280;14306;49.942;11.570;2023-02-11T06:51:29;99182.84;;;3.20;78.40
1371;BME280;14306;49.942;11.570;2023-02-11T06:53:58;99205.69;;;3.23;78.57
1371;BME280;14306;49.942;11.570;2023-02-11T06:56:27;99199.97;;;3.13;78.16
1371;BME280;14306;49.942;11.570;2023-02-11T06:58:56;99214.47;;;2.92;78.48
1371;BME280;14306;49.942;11.570;2023-02-11T07:01:25;99211.06;;;3.16;78.18
1371;BME280;14306;49.942;11.570;2023-02-11T07:03:55;99206.31;;;3.25;77.38
1371;BME280;14306;49.942;11.570;2023-02-11T07:06:24;99204.88;;;3.22;78.03
1371;BME280;14306;49.942;11.570;2023-02-11T07:08:54;99206.47;;;3.30;78.32
1371;BME280;14306;49.942;11.570;2023-02-11T07:11:25;99206.53;;;3.23;78.32
1371;BME280;14306;49.942;11.570;2023-02-11T07:13:58;99201.22;;;3.04;78.84
1371;BME280;14306;49.942;11.570;2023-02-11T07:16:27;99208.56;;;2.71;79.92
1371;BME280;14306;49.942;11.570;2023-02-11T07:18:56;99217.31;;;3.48;77.39
1371;BME280;14306;49.942;11.570;2023-02-11T07:21:24;99219.16;;;3.54;76.89
1371;BME280;14306;49.942;11.570;2023-02-11T07:23:52;99217.22;;;3.67;76.58
1371;BME280;14306;49.942;11.570;2023-02-11T07:26:22;99212.34;;;3.89;75.58
1371;BME280;14306;49.942;11.570;2023-02-11T07:28:53;99212.56;;;3.50;76.43
1371;BME280;14306;49.942;11.570;2023-02-11T07:31:24;99214.13;;;3.95;76.12
1371;BME280;14306;49.942;11.570;2023-02-11T07:33:54;99218.22;;;4.04;75.15
1371;BME280;14306;49.942;11.570;2023-02-11T07:36:23;99213.78;;;4.16;74.21
1371;BME280;14306;49.942;11.570;2023-02-11T07:38:51;99214.06;;;3.77;75.44
1371;BME280;14306;49.942;11.570;2023-02-11T07:41:21;99223.06;;;3.51;76.68
1371;BME280;14306;49.942;11.570;2023-02-11T07:43:50;99221.69;;;3.73;76.70
1371;BME280;14306;49.942;11.570;2023-02-11T07:46:21;99237.72;;;4.42;74.07
1371;BME280;14306;49.942;11.570;2023-02-11T07:48:50;99232.56;;;3.85;76.88
1371;BME280;14306;49.942;11.570;2023-02-11T07:51:21;99228.53;;;4.50;74.30
1371;BME280;14306;49.942;11.570;2023-02-11T07:53:50;99227.44;;;4.57;73.06
1371;BME280;14306;49.942;11.570;2023-02-11T07:56:20;99231.13;;;4.38;74.97
1371;BME280;14306;49.942;11.570;2023-02-11T07:58:49;99211.16;;;3.78;76.28
1371;BME280;14306;49.942;11.570;2023-02-11T08:01:21;99206.13;;;4.19;76.39
1371;BME280;14306;49.942;11.570;2023-02-11T08:03:51;99207.16;;;4.18;76.95
1371;BME280;14306;49.942;11.570;2023-02-11T08:06:22;99206.31;;;3.93;76.97
1371;BME280;14306;49.942;11.570;2023-02-11T08:08:50;99216.53;;;4.09;77.40
1371;BME280;14306;49.942;11.570;2023-02-11T08:11:21;99220.41;;;4.13;77.33
1371;BME280;14306;49.942;11.570;2023-02-11T08:13:49;99228.69;;;4.30;77.69
1371;BME280;14306;49.942;11.570;2023-02-11T08:16:21;99227.28;;;4.28;77.81
1371;BME280;14306;49.942;11.570;2023-02-11T08:18:52;99225.38;;;4.10;77.72
1371;BME280;14306;49.942;11.570;2023-02-11T08:21:21;99217.97;;;4.05;77.18
1371;BME280;14306;49.942;11.570;2023-02-11T08:23:49;99208.88;;;3.82;80.00
1371;BME280;14306;49.942;11.570;2023-02-11T08:26:19;99217.34;;;4.35;77.94
1371;BME280;14306;49.942;11.570;2023-02-11T08:28:49;99212.78;;;4.60;77.72
1371;BME280;14306;49.942;11.570;2023-02-11T08:31:22;99222.66;;;4.84;77.08
1371;BME280;14306;49.942;11.570;2023-02-11T08:33:52;99215.56;;;4.22;76.69
1371;BME280;14306;49.942;11.570;2023-02-11T08:36:28;99221.34;;;4.50;77.29
1371;BME280;14306;49.942;11.570;2023-02-11T08:38:58;99213.19;;;5.17;75.59
1371;BME280;14306;49.942;11.570;2023-02-11T08:41:44;99215.28;;;5.15;75.64
1371;BME280;14306;49.942;11.570;2023-02-11T08:44:14;99223.72;;;5.48;74.76
1371;BME280;14306;49.942;11.570;2023-02-11T08:46:45;99205.34;;;5.16;76.49
1371;BME280;14306;49.942;11.570;2023-02-11T08:49:13;99213.16;;;5.35;75.95
1371;BME280;14306;49.942;11.570;2023-02-11T08:51:43;99215.63;;;5.66;74.45
1371;BME280;14306;49.942;11.570;2023-02-11T08:54:12;99213.59;;;5.80;73.17
1371;BME280;14306;49.942;11.570;2023-02-11T08:56:40;99229.38;;;6.06;74.91
1371;BME280;14306;49.942;11.570;2023-02-11T08:59:12;99235.47;;;6.13;73.60
1371;BME280;14306;49.942;11.570;2023-02-11T09:01:40;99230.00;;;6.19;72.71
1371;BME280;14306;49.942;11.570;2023-02-11T09:04:11;99238.72;;;6.03;71.76
1371;BME280;14306;49.942;11.570;2023-02-11T09:06:40;99221.81;;;5.85;73.51
1371;BME280;14306;49.942;11.570;2023-02-11T09:09:10;99219.06;;;6.03;72.44
1371;BME280;14306;49.942;11.570;2023-02-11T09:11:41;99217.41;;;6.54;69.75
1371;BME280;14306;49.942;11.570;2023-02-11T09:14:16;99229.31;;;7.04;71.04
1371;BME280;14306;49.942;11.570;2023-02-11T09:16:46;99226.63;;;6.35;71.00
1371;BME280;14306;49.942;11.570;2023-02-11T09:19:17;99221.38;;;6.63;70.85
1371;BME280;14306;49.942;11.570;2023-02-11T09:21:46;99227.78;;;7.08;70.98
1371;BME280;14306;49.942;11.570;2023-02-11T09:24:14;99231.41;;;7.14;69.30
1371;BME280;14306;49.942;11.570;2023-02-11T09:26:43;99229.38;;;7.32;68.09
1371;BME280;14306;49.942;11.570;2023-02-11T09:29:11;99221.25;;;7.04;68.14
1371;BME280;14306;49.942;11.570;2023-02-11T09:31:40;99223.59;;;6.89;69.72
1371;BME280;14306;49.942;11.570;2023-02-11T09:34:09;99224.28;;;7.08;68.79
1371;BME280;14306;49.942;11.570;2023-02-11T09:36:40;99209.56;;;6.87;67.59
1371;BME280;14306;49.942;11.570;2023-02-11T09:39:11;99201.50;;;6.41;70.64
1371;BME280;14306;49.942;11.570;2023-02-11T09:42:07;99222.91;;;6.94;68.49
1371;BME280;14306;49.942;11.570;2023-02-11T09:44:38;99227.78;;;7.08;68.88
1371;BME280;14306;49.942;11.570;2023-02-11T09:47:20;99234.00;;;7.60;66.72
1371;BME280;14306;49.942;11.570;2023-02-11T09:49:53;99236.44;;;7.61;66.56
1371;BME280;14306;49.942;11.570;2023-02-11T09:52:32;99246.19;;;7.90;65.69
1371;BME280;14306;49.942;11.570;2023-02-11T09:55:05;99244.97;;;7.19;67.50
1371;BME280;14306;49.942;11.570;2023-02-11T09:57:39;99247.63;;;7.42;66.43
1371;BME280;14306;49.942;11.570;2023-02-11T10:00:17;99241.56;;;7.74;66.75
1371;BME280;14306;49.942;11.570;2023-02-11T10:03:00;99234.34;;;7.63;67.30
1371;BME280;14306;49.942;11.570;2023-02-11T10:05:43;99229.81;;;7.41;67.28
1371;BME280;14306;49.942;11.570;2023-02-11T10:08:21;99241.38;;;7.92;67.79
1371;BME280;14306;49.942;11.570;2023-02-11T10:10:57;99228.97;;;7.63;65.59
1371;BME280;14306;49.942;11.570;2023-02-11T10:13:42;99229.50;;;7.77;65.28
1371;BME280;14306;49.942;11.570;2023-02-11T10:16:25;99223.81;;;7.50;65.66
1371;BME280;14306;49.942;11.570;2023-02-11T10:19:07;99225.75;;;7.66;66.21
1371;BME280;14306;49.942;11.570;2023-02-11T10:21:47;99234.97;;;7.42;65.81
1371;BME280;14306;49.942;11.570;2023-02-11T10:24:20;99248.84;;;8.02;64.30
1371;BME280;14306;49.942;11.570;2023-02-11T10:26:51;99245.84;;;7.87;63.71
1371;BME280;14306;49.942;11.570;2023-02-11T10:29:31;99233.59;;;7.40;65.58
1371;BME280;14306;49.942;11.570;2023-02-11T10:32:05;99225.72;;;7.50;66.54
1371;BME280;14306;49.942;11.570;2023-02-11T10:34:38;99253.09;;;8.43;64.04
1371;BME280;14306;49.942;11.570;2023-02-11T10:37:09;99241.97;;;8.23;66.33
1371;BME280;14306;49.942;11.570;2023-02-11T10:39:41;99245.91;;;8.03;64.61
1371;BME280;14306;49.942;11.570;2023-02-11T10:42:11;99245.75;;;8.38;63.06
1371;BME280;14306;49.942;11.570;2023-02-11T10:44:45;99233.88;;;8.11;63.37
1371;BME280;14306;49.942;11.570;2023-02-11T10:47:21;99219.91;;;7.30;65.63
1371;BME280;14306;49.942;11.570;2023-02-11T10:49:51;99227.84;;;7.36;66.48
1371;BME280;14306;49.942;11.570;2023-02-11T10:52:22;99238.81;;;7.58;66.38
1371;BME280;14306;49.942;11.570;2023-02-11T10:55:00;99267.56;;;8.53;63.80
1371;BME280;14306;49.942;11.570;2023-02-11T10:57:33;99261.63;;;8.51;62.72
1371;BME280;14306;49.942;11.570;2023-02-11T11:00:19;99253.06;;;8.26;63.77
1371;BME280;14306;49.942;11.570;2023-02-11T11:02:54;99257.41;;;7.99;64.00
1371;BME280;14306;49.942;11.570;2023-02-11T11:05:28;99255.31;;;7.73;64.31
1371;BME280;14306;49.942;11.570;2023-02-11T11:08:00;99232.59;;;7.57;64.39
1371;BME280;14306;49.942;11.570;2023-02-11T11:10:40;99241.25;;;7.20;66.01
1371;BME280;14306;49.942;11.570;2023-02-11T11:13:28;99253.34;;;8.25;63.36
1371;BME280;14306;49.942;11.570;2023-02-11T11:16:17;99247.19;;;8.01;63.81
1371;BME280;14306;49.942;11.570;2023-02-11T11:18:47;99242.72;;;7.78;64.24
1371;BME280;14306;49.942;11.570;2023-02-11T11:21:19;99238.69;;;7.64;64.56
1371;BME280;14306;49.942;11.570;2023-02-11T11:23:51;99232.28;;;7.42;65.87
1371;BME280;14306;49.942;11.570;2023-02-11T11:26:23;99237.03;;;7.91;64.10
1371;BME280;14306;49.942;11.570;2023-02-11T11:28:56;99230.00;;;7.62;64.84
1371;BME280;14306;49.942;11.570;2023-02-11T11:31:29;99233.88;;;8.11;62.98
1371;BME280;14306;49.942;11.570;2023-02-11T11:34:01;99240.13;;;7.83;64.46
1371;BME280;14306;49.942;11.570;2023-02-11T11:36:36;99232.31;;;7.70;64.45
1371;BME280;14306;49.942;11.570;2023-02-11T11:39:17;99232.28;;;7.82;64.25
1371;BME280;14306;49.942;11.570;2023-02-11T11:41:52;99246.59;;;7.82;64.03
1371;BME280;14306;49.942;11.570;2023-02-11T11:44:32;99226.75;;;7.60;65.64
1371;BME280;14306;49.942;11.570;2023-02-11T11:47:16;99231.41;;;7.93;64.12
1371;BME280;14306;49.942;11.570;2023-02-11T11:49:51;99237.38;;;7.67;64.63
1371;BME280;14306;49.942;11.570;2023-02-11T11:52:34;99237.28;;;7.62;65.06
1371;BME280;14306;49.942;11.570;2023-02-11T11:55:11;99236.88;;;7.98;64.48
1371;BME280;14306;49.942;11.570;2023-02-11T11:57:44;99230.78;;;8.02;64.60
1371;BME280;14306;49.942;11.570;2023-02-11T12:00:16;99228.66;;;8.33;62.95
1371;BME280;14306;49.942;11.570;2023-02-11T12:03:03;99226.19;;;8.03;64.38
1371;BME280;14306;49.942;11.570;2023-02-11T12:05:36;99216.28;;;7.92;64.66
1371;BME280;14306;49.942;11.570;2023-02-11T12:08:15;99207.72;;;7.27;65.95
1371;BME280;14306;49.942;11.570;2023-02-11T12:10:53;99229.66;;;7.87;65.33
1371;BME280;14306;49.942;11.570;2023-02-11T12:13:36;99226.38;;;7.57;65.68
1371;BME280;14306;49.942;11.570;2023-02-11T12:16:19;99212.50;;;7.65;65.28
1371;BME280;14306;49.942;11.570;2023-02-11T12:19:18;99211.69;;;7.92;64.93
1371;BME280;14306;49.942;11.570;2023-02-11T12:21:58;99203.78;;;7.74;65.36
1371;BME280;14306;49.942;11.570;2023-02-11T12:24:44;99210.50;;;8.00;64.46
1371;BME280;14306;49.942;11.570;2023-02-11T12:27:32;99216.66;;;8.12;63.99
1371;BME280;14306;49.942;11.570;2023-02-11T12:30:17;99208.09;;;7.87;65.33
1371;BME280;14306;49.942;11.570;2023-02-11T12:32:55;99203.78;;;7.74;65.26
1371;BME280;14306;49.942;11.570;2023-02-11T12:35:31;99200.44;;;7.95;65.18
1371;BME280;14306;49.942;11.570;2023-02-11T12:38:23;99198.13;;;8.32;63.46
1371;BME280;14306;49.942;11.570;2023-02-11T12:41:03;99202.88;;;8.25;63.86
1371;BME280;14306;49.942;11.570;2023-02-11T12:43:38;99206.16;;;8.27;63.50
1371;BME280;14306;49.942;11.570;2023-02-11T12:46:33;99160.88;;;8.01;65.14
1371;BME280;14306;49.942;11.570;2023-02-11T12:49:37;99192.31;;;8.57;63.79
1371;BME280;14306;49.942;11.570;2023-02-11T12:52:23;99190.78;;;7.99;65.27
1371;BME280;14306;49.942;11.570;2023-02-11T12:54:58;99199.28;;;8.53;63.67
1371;BME280;14306;49.942;11.570;2023-02-11T12:57:30;99195.31;;;8.10;64.80
1371;BME280;14306;49.942;11.570;2023-02-11T13:00:04;99204.78;;;8.79;62.98
1371;BME280;14306;49.942;11.570;2023-02-11T13:02:41;99201.78;;;8.43;64.00
1371;BME280;14306;49.942;11.570;2023-02-11T13:05:22;99205.31;;;8.43;64.43
1371;BME280;14306;49.942;11.570;2023-02-11T13:07:54;99194.28;;;8.28;64.96
1371;BME280;14306;49.942;11.570;2023-02-11T13:10:28;99204.44;;;8.38;65.07
1371;BME280;14306;49.942;11.570;2023-02-11T13:12:59;99188.59;;;8.13;65.60
1371;BME280;14306;49.942;11.570;2023-02-11T13:15:49;99191.16;;;8.36;65.55
1371;BME280;14306;49.942;11.570;2023-02-11T13:18:46;99194.34;;;8.33;65.41
1371;BME280;14306;49.942;11.570;2023-02-11T13:21:39;99189.38;;;8.25;66.54
1371;BME280;14306;49.942;11.570;2023-02-11T13:24:17;99185.19;;;8.51;65.86
1371;BME280;14306;49.942;11.570;2023-02-11T13:26:53;99189.69;;;8.45;66.13
1371;BME280;14306;49.942;11.570;2023-02-11T13:29:29;99182.09;;;8.26;67.30
1371;BME280;14306;49.942;11.570;2023-02-11T13:32:05;99184.63;;;8.65;65.82
1371;BME280;14306;49.942;11.570;2023-02-11T13:34:57;99175.81;;;8.37;66.46
1371;BME280;14306;49.942;11.570;2023-02-11T13:37:30;99180.53;;;8.30;66.52
1371;BME280;14306;49.942;11.570;2023-02-11T13:40:04;99181.81;;;8.60;65.80
1371;BME280;14306;49.942;11.570;2023-02-11T13:42:46;99188.06;;;8.44;65.81
1371;BME280;14306;49.942;11.570;2023-02-11T13:45:17;99190.34;;;8.36;66.23